KLPC/LPC METAR and TAF weather

Enter ICAO airport designator
Station Type Date Time Source
KLPC METAR 2019/10/15 08:41 UTC NOAA

KLPC 150841Z AUTO 00000KT 3SM BR OVC002 10/10 A3003 RMK AO2 RAE25 P0000


Station Type Date Time Source
KLPC Decoded METAR 2019/10/15 08:41 UTC NOAA

Lompoc, Lompoc Airport, CA, United States (KLPC) 34-40N 120-28W
Oct 15, 2019 - 04:41 AM EDT / 2019.10.15 0841 UTC
Wind: Calm:0
Visibility: 3 mile(s):0
Sky conditions: overcast
Weather: mist
Precipitation last hour: A trace
Temperature: 50 F (10 C)
Dew Point: 50 F (10 C)
Relative Humidity: 100%
Pressure (altimeter): 30.03 in. Hg (1016 hPa)
ob: KLPC 150841Z AUTO 00000KT 3SM BR OVC002 10/10 A3003 RMK AO2 RAE25 P0000
cycle: 8

Station Type Date Time Source
KLPC TAF UTC NOAA

Error!

Example: see airport list